Time;durP1;ratioP1;P1;durP2;ratioP2;P2;SDS_P1;SDS_P2;PMS_P1;PMS_P2;Temp;Humidity;BMP_temperature;BMP_pressure;BME280_temperature;BME280_humidity;BME280_pressure;Samples;Min_cycle;Max_cycle;Signal;HPM_P1;HPM_P2
2021/10/28 00:13:17;;;;;;;53.50;49.98;;;;;;;15.27;100.00;101513.66;1925078;74;28103;-69
2021/10/28 00:18:44;;;;;;;50.50;47.20;;;;;;;15.34;100.00;101504.87;1941135;74;33030;-69
2021/10/28 00:24:11;;;;;;;49.27;45.87;;;;;;;15.31;100.00;101511.92;1941107;74;33132;-69
2021/10/28 00:29:38;;;;;;;49.67;46.17;;;;;;;15.29;100.00;101496.55;1940993;74;33118;-69
2021/10/28 00:35:05;;;;;;;49.90;46.50;;;;;;;15.26;100.00;101488.20;1941161;74;33519;-68
2021/10/28 00:40:30;;;;;;;48.67;45.33;;;;;;;15.26;100.00;101484.56;1941060;74;33078;-69
2021/10/28 00:45:55;;;;;;;49.10;46.30;;;;;;;15.23;100.00;101473.38;1941293;74;33598;-67
2021/10/28 00:51:22;;;;;;;50.73;47.37;;;;;;;15.12;100.00;101463.48;1941305;74;33570;-69
2021/10/28 00:56:48;;;;;;;47.57;44.10;;;;;;;15.09;100.00;101461.85;1941071;74;33091;-69
2021/10/28 01:02:13;;;;;;;48.07;45.00;;;;;;;15.15;100.00;101453.07;1941279;74;33020;-67
2021/10/28 01:07:38;;;;;;;49.53;46.33;;;;;;;15.12;100.00;101454.25;1941259;74;32996;-69
2021/10/28 01:13:04;;;;;;;49.70;46.43;;;;;;;14.88;100.00;101443.95;1941282;74;33552;-69
2021/10/28 01:18:30;;;;;;;49.73;46.50;;;;;;;14.81;100.00;101435.62;1941268;74;33113;-69
2021/10/28 01:23:55;;;;;;;48.27;44.97;;;;;;;14.67;100.00;101434.15;1941052;74;33090;-68
2021/10/28 01:29:20;;;;;;;49.87;46.50;;;;;;;14.57;100.00;101440.69;1941022;74;32983;-68
2021/10/28 01:34:46;;;;;;;48.50;45.50;;;;;;;14.55;100.00;101440.14;1941255;74;33565;-68
2021/10/28 01:40:13;;;;;;;50.30;46.90;;;;;;;14.42;100.00;101442.80;1941023;74;33071;-69
2021/10/28 01:45:42;;;;;;;48.30;44.80;;;;;;;14.54;100.00;101434.87;1941307;74;33054;-68
2021/10/28 01:51:06;;;;;;;50.47;47.07;;;;;;;14.39;100.00;101438.66;1941289;74;33560;-69
2021/10/28 01:56:32;;;;;;;48.77;45.50;;;;;;;14.34;100.00;101427.49;1941289;74;33565;-69
2021/10/28 02:01:57;;;;;;;50.77;47.57;;;;;;;14.33;100.00;101418.03;1941054;74;33099;-68
2021/10/28 02:07:22;;;;;;;50.03;46.83;;;;;;;14.30;100.00;101416.64;1941063;74;33074;-68
2021/10/28 02:12:47;;;;;;;49.23;45.97;;;;;;;14.24;100.00;101408.62;1941042;74;32988;-67
2021/10/28 02:18:13;;;;;;;50.53;47.13;;;;;;;14.14;100.00;101409.00;1941261;74;33666;-69
2021/10/28 02:23:38;;;;;;;48.60;45.37;;;;;;;14.04;100.00;101402.67;1943000;74;33083;-68
2021/10/28 02:29:03;;;;;;;50.77;47.33;;;;;;;14.06;100.00;101392.88;1941083;74;32989;-67
2021/10/28 02:34:27;;;;;;;52.23;48.83;;;;;;;14.08;100.00;101384.19;1941126;74;33012;-67
2021/10/28 02:39:52;;;;;;;49.27;46.17;;;;;;;14.04;100.00;101387.30;1941167;74;33135;-69
2021/10/28 02:45:16;;;;;;;50.07;46.93;;;;;;;14.09;100.00;101388.66;1941063;74;33072;-67
2021/10/28 02:50:41;;;;;;;49.13;46.20;;;;;;;14.11;100.00;101383.63;1941064;74;33062;-68
2021/10/28 02:56:07;;;;;;;50.23;47.23;;;;;;;14.24;100.00;101380.68;1941243;74;33564;-69
2021/10/28 03:01:32;;;;;;;47.40;44.17;;;;;;;14.19;100.00;101383.53;1941056;74;32998;-69
2021/10/28 03:06:57;;;;;;;50.33;47.07;;;;;;;14.00;100.00;101367.52;1941225;74;33529;-71
2021/10/28 03:12:22;;;;;;;50.00;46.80;;;;;;;14.10;100.00;101359.03;1941139;74;33141;-69
2021/10/28 03:18:14;;;;;;;50.27;47.27;;;;;;;14.09;100.00;101351.77;1941036;74;33057;-67
2021/10/28 03:29:13;;;;;;;47.83;44.77;;;;;;;14.24;100.00;101337.38;1941077;74;33078;-68
2021/10/28 03:34:38;;;;;;;49.50;46.37;;;;;;;14.35;100.00;101343.95;1941075;74;32985;-69
2021/10/28 03:40:19;;;;;;;50.63;47.33;;;;;;;14.39;100.00;101324.06;1941056;74;33082;-69
2021/10/28 04:20:57;;;;;;;54.60;50.57;;;;;;;14.20;100.00;101315.34;2009926;71;32902;-69
2021/10/28 04:32:00;;;;;;;51.27;47.80;;;;;;;14.17;100.00;101317.32;1941072;74;33134;-69
2021/10/28 04:37:26;;;;;;;51.40;48.03;;;;;;;14.20;100.00;101309.20;1941129;74;33065;-69
2021/10/28 04:43:09;;;;;;;52.73;49.33;;;;;;;14.06;100.00;101303.49;2009847;71;32803;-69
2021/10/28 04:48:53;;;;;;;52.47;49.07;;;;;;;14.09;100.00;101299.26;2007850;71;33403;-67
2021/10/28 04:54:23;;;;;;;51.93;48.37;;;;;;;14.02;100.00;101301.03;1941272;74;33611;-68
2021/10/28 05:00:13;;;;;;;53.30;49.63;;;;;;;14.04;100.00;101306.30;2006059;71;32867;-69
2021/10/28 05:05:37;;;;;;;51.80;48.23;;;;;;;13.99;100.00;101300.20;1941261;74;33596;-67
2021/10/28 05:11:02;;;;;;;51.13;47.83;;;;;;;14.02;100.00;101308.02;1941160;74;33447;-68
2021/10/28 05:16:27;;;;;;;53.80;50.27;;;;;;;14.01;100.00;101296.56;1941155;74;32959;-68
2021/10/28 05:21:51;;;;;;;54.03;50.33;;;;;;;13.97;100.00;101306.67;1941115;74;32980;-69
2021/10/28 05:27:15;;;;;;;52.70;49.20;;;;;;;13.92;100.00;101293.31;1941100;74;33032;-69
2021/10/28 05:32:39;;;;;;;51.03;47.60;;;;;;;13.86;100.00;101296.72;1941269;74;33078;-68
2021/10/28 05:38:04;;;;;;;50.27;46.80;;;;;;;13.75;100.00;101296.58;1941256;74;32991;-68
2021/10/28 05:43:28;;;;;;;50.13;46.53;;;;;;;13.73;100.00;101281.27;1941146;74;33064;-68
2021/10/28 05:48:53;;;;;;;52.07;48.40;;;;;;;13.70;100.00;101274.30;1941255;74;33422;-68
2021/10/28 05:54:17;;;;;;;50.23;46.73;;;;;;;13.68;100.00;101264.83;1941242;74;33555;-69
2021/10/28 05:59:41;;;;;;;52.50;48.90;;;;;;;13.70;100.00;101256.14;1941254;74;33600;-70
2021/10/28 06:05:08;;;;;;;49.70;46.30;;;;;;;13.66;100.00;101247.53;1941215;74;33464;-70
2021/10/28 06:10:33;;;;;;;52.77;49.03;;;;;;;13.61;100.00;101234.19;1941144;74;33142;-69
2021/10/28 06:15:59;;;;;;;51.23;47.77;;;;;;;13.62;100.00;101240.88;1941031;74;33134;-67
2021/10/28 06:21:25;;;;;;;51.50;47.90;;;;;;;13.56;100.00;101237.06;1941015;74;33048;-68
2021/10/28 06:26:50;;;;;;;49.87;46.37;;;;;;;13.40;100.00;101228.00;1941120;74;33058;-68
2021/10/28 06:32:14;;;;;;;49.83;46.47;;;;;;;13.44;100.00;101230.47;1941028;74;32966;-69
2021/10/28 06:37:45;;;;;;;51.63;47.60;;;;;;;13.41;100.00;101235.25;1941254;74;33581;-67
2021/10/28 06:43:08;;;;;;;50.73;47.07;;;;;;;13.32;100.00;101225.02;1941263;74;33591;-67
2021/10/28 06:48:33;;;;;;;51.43;47.73;;;;;;;13.29;100.00;101223.66;1941205;74;33561;-68
2021/10/28 06:54:23;;;;;;;53.80;49.97;;;;;;;13.26;100.00;101217.28;2009858;71;32808;-66
2021/10/28 07:05:28;;;;;;;50.63;47.13;;;;;;;13.25;100.00;101205.84;1941260;74;33505;-69
2021/10/28 07:10:55;;;;;;;48.97;45.50;;;;;;;13.19;100.00;101216.22;1941042;74;33072;-68
2021/10/28 07:16:29;;;;;;;51.13;47.63;;;;;;;13.27;100.00;101213.91;1941032;74;33141;-68
2021/10/28 07:28:01;;;;;;;48.93;45.53;;;;;;;13.30;100.00;101204.41;1940991;74;33039;-69
2021/10/28 07:33:48;;;;;;;48.20;44.73;;;;;;;13.43;100.00;101196.73;1941301;74;33469;-68
2021/10/28 07:39:42;;;;;;;48.53;45.00;;;;;;;13.56;100.00;101190.41;1941248;74;33488;-68
2021/10/28 08:13:37;;;;;;;45.80;42.60;;;;;;;14.21;100.00;101171.13;1941017;74;33055;-68
2021/10/28 08:19:04;;;;;;;48.00;44.80;;;;;;;14.26;100.00;101161.28;1941003;74;33005;-68
2021/10/28 08:30:17;;;;;;;45.27;42.37;;;;;;;14.43;100.00;101146.80;1940998;74;32991;-69
2021/10/28 08:35:52;;;;;;;45.37;42.37;;;;;;;14.63;100.00;101145.66;1941023;74;33006;-67
2021/10/28 08:41:14;;;;;;;44.50;41.70;;;;;;;14.73;100.00;101134.28;1941242;74;33483;-66
2021/10/28 08:46:43;;;;;;;44.50;41.63;;;;;;;14.71;100.00;101126.22;1941001;74;33078;-67
2021/10/28 08:52:24;;;;;;;45.43;42.27;;;;;;;14.84;100.00;101121.23;1941273;74;33502;-68
2021/10/28 08:57:55;;;;;;;45.33;42.17;;;;;;;14.89;100.00;101118.32;1941238;74;33476;-68
2021/10/28 09:24:13;;;;;;;46.00;42.80;;;;;;;15.09;100.00;101089.72;1872813;76;26247;-66
2021/10/28 09:29:45;;;;;;;44.30;41.13;;;;;;;15.35;100.00;101079.11;1941051;74;33118;-67
2021/10/28 09:35:32;;;;;;;43.10;40.13;;;;;;;15.40;100.00;101077.58;1941029;74;33066;-67
2021/10/28 09:47:06;;;;;;;42.30;39.60;;;;;;;15.46;100.00;101065.14;1941239;74;32974;-68
2021/10/28 09:52:32;;;;;;;42.73;40.03;;;;;;;15.49;100.00;101061.70;1941271;74;33617;-68
2021/10/28 09:58:23;;;;;;;43.40;40.33;;;;;;;15.48;100.00;101056.44;1941115;74;33104;-68
2021/10/28 10:03:48;;;;;;;44.10;41.30;;;;;;;15.52;100.00;101044.91;1941137;74;33000;-67
2021/10/28 10:09:13;;;;;;;46.13;43.10;;;;;;;15.46;100.00;101046.95;1941258;74;33007;-68
2021/10/28 10:14:43;;;;;;;43.13;40.33;;;;;;;15.44;100.00;101049.81;1941062;74;33068;-69
2021/10/28 10:20:14;;;;;;;44.43;41.57;;;;;;;15.40;100.00;101038.39;1940986;74;33072;-68
2021/10/28 10:25:50;;;;;;;44.13;41.23;;;;;;;15.38;100.00;101031.45;1941271;74;31064;-68
2021/10/28 12:23:11;;;;;;;43.27;40.53;;;;;;;16.06;100.00;100880.56;1941014;74;31068;-68
2021/10/28 12:46:25;;;;;;;45.03;41.97;;;;;;;15.92;100.00;100862.43;1941154;74;31111;-67
2021/10/28 13:04:02;;;;;;;45.73;42.53;;;;;;;16.11;100.00;100826.62;1941056;74;33125;-67
2021/10/28 13:38:30;;;;;;;45.63;42.73;;;;;;;16.14;100.00;100750.30;1941093;74;33018;-70
2021/10/28 13:49:42;;;;;;;44.90;42.20;;;;;;;16.06;100.00;100740.46;1941051;74;33072;-68
2021/10/28 13:55:15;;;;;;;46.97;44.13;;;;;;;16.05;100.00;100755.61;1941310;74;31651;-67
2021/10/28 14:18:50;;;;;;;45.33;42.53;;;;;;;15.81;100.00;100721.84;1941127;74;33093;-65
2021/10/28 15:38:50;;;;;;;48.30;44.90;;;;;;;15.36;100.00;100666.50;1941083;74;33059;-67
2021/10/28 15:50:43;;;;;;;47.53;44.40;;;;;;;15.35;100.00;100655.08;1940951;74;33085;-68
2021/10/28 16:30:29;;;;;;;46.43;43.43;;;;;;;15.28;100.00;100626.70;1941130;74;33124;-70
2021/10/28 16:35:53;;;;;;;46.43;43.47;;;;;;;15.22;100.00;100625.78;1941002;74;32991;-68
2021/10/28 16:41:17;;;;;;;48.10;45.13;;;;;;;15.25;100.00;100628.76;1941192;74;33553;-67
2021/10/28 16:46:43;;;;;;;45.80;42.90;;;;;;;15.19;100.00;100625.03;1941229;74;33587;-68
2021/10/28 16:52:09;;;;;;;49.27;45.93;;;;;;;15.16;100.00;100627.05;1941204;74;33552;-68
2021/10/28 16:57:33;;;;;;;50.43;47.33;;;;;;;15.14;100.00;100619.58;1941007;74;33060;-66
2021/10/28 17:02:59;;;;;;;50.60;47.33;;;;;;;15.06;100.00;100614.16;1861650;72;33246;-66
2021/10/28 17:08:23;;;;;;;50.77;47.50;;;;;;;14.85;100.00;100620.88;1941060;74;33105;-66
2021/10/28 17:13:48;;;;;;;49.07;45.90;;;;;;;14.79;100.00;100610.98;1941051;74;33087;-67
2021/10/28 17:19:13;;;;;;;50.80;47.37;;;;;;;14.74;100.00;100614.47;1941186;74;33104;-66
2021/10/28 17:24:39;;;;;;;55.03;51.63;;;;;;;14.69;100.00;100609.83;1941253;74;33567;-67
2021/10/28 17:30:07;;;;;;;54.60;50.83;;;;;;;14.37;100.00;100608.70;1941181;74;33029;-68
2021/10/28 17:35:31;;;;;;;55.67;51.80;;;;;;;14.47;100.00;100606.47;1941372;74;33179;-68
2021/10/28 17:40:55;;;;;;;55.87;52.17;;;;;;;14.36;100.00;100602.28;1941370;74;33631;-68
2021/10/28 17:46:20;;;;;;;52.63;48.63;;;;;;;14.16;100.00;100601.34;1941294;74;33074;-69
2021/10/28 17:51:45;;;;;;;55.23;51.47;;;;;;;14.19;100.00;100606.86;1941058;74;33062;-67
2021/10/28 17:57:10;;;;;;;54.20;50.43;;;;;;;14.21;100.00;100605.96;1941071;74;32960;-67
2021/10/28 18:02:35;;;;;;;56.33;52.40;;;;;;;14.13;100.00;100594.97;1941114;74;33154;-67
2021/10/28 18:08:01;;;;;;;52.33;48.73;;;;;;;14.08;100.00;100593.69;1941208;74;33017;-67
2021/10/28 18:13:26;;;;;;;50.73;46.93;;;;;;;13.82;100.00;100586.46;1941123;74;33089;-67
2021/10/28 18:18:52;;;;;;;54.90;51.33;;;;;;;13.85;100.00;100582.23;1941116;74;33163;-68
2021/10/28 18:24:17;;;;;;;54.27;50.27;;;;;;;13.98;100.00;100579.98;1941080;74;32965;-67
2021/10/28 18:29:41;;;;;;;54.70;50.87;;;;;;;13.97;100.00;100574.96;1941075;74;33005;-69
2021/10/28 18:35:08;;;;;;;51.57;47.60;;;;;;;14.20;100.00;100573.03;1941110;74;33091;-68
2021/10/28 18:40:32;;;;;;;51.67;48.37;;;;;;;14.32;100.00;100571.90;1941266;74;33661;-68
2021/10/28 18:45:57;;;;;;;53.93;50.17;;;;;;;14.43;100.00;100557.11;1941306;74;33548;-69
2021/10/28 18:51:23;;;;;;;52.70;49.30;;;;;;;14.46;100.00;100548.91;1941198;74;33009;-68
2021/10/28 18:56:47;;;;;;;54.87;51.43;;;;;;;14.46;100.00;100533.55;1941357;74;33614;-67
2021/10/28 19:02:12;;;;;;;52.60;49.13;;;;;;;14.51;100.00;100525.03;1941061;74;32973;-68
2021/10/28 19:07:37;;;;;;;46.50;43.30;;;;;;;14.56;100.00;100524.08;1941088;74;33112;-69
2021/10/28 19:13:04;;;;;;;51.77;48.57;;;;;;;14.74;100.00;100514.65;1941070;74;32990;-69
2021/10/28 19:18:28;;;;;;;45.43;42.30;;;;;;;14.64;100.00;100502.91;1941318;74;33508;-70
2021/10/28 19:23:53;;;;;;;51.10;47.87;;;;;;;14.63;100.00;100489.53;1907973;75;33667;-70
2021/10/28 19:29:20;;;;;;;51.67;48.27;;;;;;;14.69;100.00;100484.59;1941315;74;33070;-67
2021/10/28 19:34:44;;;;;;;49.80;46.60;;;;;;;14.71;100.00;100468.34;1941060;74;33066;-68
2021/10/28 19:40:29;;;;;;;50.63;47.53;;;;;;;14.76;100.00;100455.02;1941251;74;33119;-68
2021/10/28 19:51:49;;;;;;;45.47;42.30;;;;;;;14.78;100.00;100436.54;1941306;74;33636;-66
2021/10/28 19:57:17;;;;;;;47.77;44.57;;;;;;;14.74;100.00;100418.77;1941035;74;33083;-70
2021/10/28 20:03:07;;;;;;;52.27;48.77;;;;;;;14.86;100.00;100404.41;1941282;74;33584;-66
2021/10/28 20:08:27;;;;;;;48.80;45.43;;;;;;;14.85;100.00;100398.56;1941078;74;33015;-69
2021/10/28 20:14:15;;;;;;;50.40;47.07;;;;;;;14.90;100.00;100390.03;1941314;74;33506;-68
2021/10/28 20:25:21;;;;;;;49.20;46.00;;;;;;;14.98;100.00;100382.80;1941070;74;33129;-67
2021/10/28 20:30:55;;;;;;;47.73;44.50;;;;;;;14.95;100.00;100379.27;1941351;74;33547;-68
2021/10/28 20:42:22;;;;;;;47.23;43.87;;;;;;;15.03;100.00;100361.67;2005745;71;32830;-73
2021/10/28 20:47:47;;;;;;;51.18;47.40;;;;;;;15.14;100.00;100352.41;1925391;74;28115;-71
2021/10/28 20:53:13;;;;;;;47.97;44.60;;;;;;;15.27;100.00;100351.42;1941272;74;33571;-67
2021/10/28 20:58:38;;;;;;;47.27;43.70;;;;;;;15.29;100.00;100345.73;1941314;74;33290;-67
2021/10/28 21:04:03;;;;;;;46.93;43.53;;;;;;;15.30;100.00;100347.97;1941294;74;33653;-67
2021/10/28 21:09:27;;;;;;;46.70;43.47;;;;;;;15.33;100.00;100336.93;1941107;74;33484;-68
2021/10/28 21:14:52;;;;;;;45.47;42.27;;;;;;;15.34;100.00;100330.19;1941334;74;33176;-74
2021/10/28 21:20:17;;;;;;;47.00;43.37;;;;;;;15.33;100.00;100327.70;1941269;74;33563;-67
2021/10/28 21:25:42;;;;;;;44.70;41.30;;;;;;;15.25;100.00;100329.36;1941293;74;33594;-67
2021/10/28 21:31:07;;;;;;;45.10;41.93;;;;;;;15.32;100.00;100320.45;1941325;74;33567;-67
2021/10/28 21:36:31;;;;;;;44.10;40.80;;;;;;;15.35;100.00;100324.84;1941306;74;33157;-67
2021/10/28 21:41:55;;;;;;;46.93;43.73;;;;;;;15.32;100.00;100321.86;1941321;74;33147;-69
2021/10/28 21:47:20;;;;;;;46.07;42.70;;;;;;;15.35;100.00;100310.02;1941122;74;32997;-69
2021/10/28 21:52:48;;;;;;;45.63;42.53;;;;;;;15.34;100.00;100311.17;1941319;74;33586;-67
2021/10/28 21:58:17;;;;;;;51.60;48.10;;;;;;;15.42;100.00;100302.77;1941096;74;33117;-69
2021/10/28 22:26:33;;;;;;;50.77;47.30;;;;;;;15.37;100.00;100266.55;1941066;74;33210;-67
2021/10/28 22:31:57;;;;;;;53.57;50.27;;;;;;;15.33;100.00;100249.36;1941111;74;32988;-67
2021/10/28 22:37:23;;;;;;;51.97;48.63;;;;;;;15.31;100.00;100240.48;1941302;74;33520;-69
2021/10/28 22:42:50;;;;;;;50.43;47.23;;;;;;;15.37;100.00;100239.97;1941337;74;33450;-67
2021/10/28 22:48:17;;;;;;;52.40;48.90;;;;;;;15.25;100.00;100237.59;1941294;74;33488;-69
2021/10/28 22:53:42;;;;;;;51.70;47.97;;;;;;;15.26;100.00;100233.08;1941278;74;33587;-69
2021/10/28 22:59:06;;;;;;;50.93;47.57;;;;;;;15.29;100.00;100233.81;1941152;74;33097;-67
2021/10/28 23:04:48;;;;;;;50.37;47.27;;;;;;;15.36;100.00;100220.73;1941308;74;33637;-67
2021/10/28 23:16:19;;;;;;;51.13;47.93;;;;;;;15.27;100.00;100207.33;1941402;74;33469;-69
2021/10/28 23:21:38;;;;;;;51.43;47.70;;;;;;;15.29;100.00;100197.44;1941302;74;33543;-67
2021/10/28 23:27:03;;;;;;;50.13;46.43;;;;;;;15.30;100.00;100198.27;1941191;74;33103;-67
2021/10/28 23:32:29;;;;;;;50.73;47.23;;;;;;;15.34;100.00;100195.87;1941151;74;33114;-67
2021/10/28 23:37:53;;;;;;;49.43;46.33;;;;;;;15.40;100.00;100190.31;1941099;74;33086;-67
2021/10/28 23:43:20;;;;;;;46.70;43.40;;;;;;;15.40;100.00;100178.33;1941291;74;33562;-70
2021/10/28 23:49:05;;;;;;;51.50;48.00;;;;;;;15.32;100.00;100172.98;2004248;71;32843;-68
2021/10/28 23:54:30;;;;;;;49.73;46.33;;;;;;;15.38;100.00;100159.06;1941350;74;33123;-67
2021/10/28 23:59:55;;;;;;;49.77;46.30;;;;;;;15.40;100.00;100155.33;1941377;74;33485;-69
